createdAt,value
2018-06-20T00:00:08.704Z,2.10
2018-06-20T00:02:37.532Z,2.15
2018-06-20T00:05:06.380Z,2.20
2018-06-20T00:07:35.221Z,1.90
2018-06-20T00:10:04.071Z,2.20
2018-06-20T00:12:32.915Z,2.15
2018-06-20T00:15:01.754Z,2.30
2018-06-20T00:17:30.599Z,2.83
2018-06-20T00:19:59.439Z,2.50
2018-06-20T00:22:28.276Z,2.20
2018-06-20T00:24:57.135Z,2.15
2018-06-20T00:27:25.975Z,2.00
2018-06-20T00:29:54.837Z,2.20
2018-06-20T00:32:23.663Z,2.20
2018-06-20T00:34:52.510Z,2.37
2018-06-20T00:37:21.349Z,2.47
2018-06-20T00:39:50.926Z,2.15
2018-06-20T00:42:19.761Z,3.10
2018-06-20T00:44:49.346Z,2.87
2018-06-20T00:47:18.182Z,2.70
2018-06-20T00:49:47.022Z,2.50
2018-06-20T00:52:15.866Z,2.45
2018-06-20T00:54:44.702Z,2.85
2018-06-20T00:57:14.150Z,2.40
2018-06-20T00:59:42.994Z,2.50
2018-06-20T01:02:11.901Z,2.75
2018-06-20T01:04:40.733Z,2.60
2018-06-20T01:07:09.585Z,2.47
2018-06-20T01:09:38.437Z,2.33
2018-06-20T01:12:07.273Z,2.70
2018-06-20T01:14:36.846Z,2.72
2018-06-20T01:17:05.690Z,2.92
2018-06-20T01:19:34.525Z,2.53
2018-06-20T01:22:03.361Z,2.55
2018-06-20T01:24:32.199Z,2.78
2018-06-20T01:27:01.048Z,2.47
2018-06-20T01:29:29.882Z,3.22
2018-06-20T01:31:58.732Z,2.53
2018-06-20T01:34:27.571Z,2.75
2018-06-20T01:36:56.411Z,2.95
2018-06-20T01:39:25.259Z,2.83
2018-06-20T01:41:54.106Z,2.55
2018-06-20T01:44:22.948Z,3.03
2018-06-20T01:46:52.533Z,2.78
2018-06-20T01:49:21.391Z,3.40
2018-06-20T01:51:50.235Z,2.33
2018-06-20T01:54:19.825Z,2.80
2018-06-20T01:56:49.400Z,2.60
2018-06-20T01:59:18.238Z,3.03
2018-06-20T02:01:47.818Z,2.67
2018-06-20T02:04:16.660Z,2.90
2018-06-20T02:06:45.502Z,2.37
2018-06-20T02:09:14.336Z,2.72
2018-06-20T02:11:43.178Z,2.70
2018-06-20T02:14:12.021Z,2.90
2018-06-20T02:16:40.866Z,3.58
2018-06-20T02:19:09.726Z,3.40
2018-06-20T02:21:38.558Z,3.70
2018-06-20T02:24:07.390Z,3.00
2018-06-20T02:26:36.245Z,3.03
2018-06-20T02:29:05.085Z,2.60
2018-06-20T02:31:33.928Z,3.10
2018-06-20T02:34:02.768Z,3.28
2018-06-20T02:36:31.639Z,3.43
2018-06-20T02:39:00.443Z,3.57
2018-06-20T02:41:29.285Z,3.17
2018-06-20T02:43:58.123Z,3.17
2018-06-20T02:46:26.965Z,3.10
2018-06-20T02:48:55.796Z,2.78
2018-06-20T02:51:24.633Z,3.03
2018-06-20T02:53:54.216Z,3.40
2018-06-20T02:56:23.057Z,3.70
2018-06-20T02:58:51.893Z,4.03
2018-06-20T03:01:20.729Z,3.60
2018-06-20T03:03:49.588Z,3.00
2018-06-20T03:06:18.431Z,3.13
2018-06-20T03:08:47.261Z,4.20
2018-06-20T03:11:16.846Z,3.57
2018-06-20T03:13:45.687Z,4.30
2018-06-20T03:16:14.525Z,4.33
2018-06-20T03:18:43.358Z,4.03
2018-06-20T03:21:12.936Z,3.40
2018-06-20T03:23:41.776Z,3.90
2018-06-20T03:26:10.621Z,3.40
2018-06-20T03:28:39.465Z,3.63
2018-06-20T03:31:08.307Z,3.63
2018-06-20T03:33:37.890Z,4.20
2018-06-20T03:36:06.729Z,4.32
2018-06-20T03:38:35.577Z,4.10
2018-06-20T03:41:04.429Z,3.90
2018-06-20T03:43:33.260Z,5.00
2018-06-20T03:46:02.849Z,3.93
2018-06-20T03:48:31.676Z,4.20
2018-06-20T03:51:00.519Z,4.17
2018-06-20T03:53:29.353Z,4.30
2018-06-20T03:55:58.187Z,3.70
2018-06-20T03:58:27.030Z,5.40
2018-06-20T04:00:55.866Z,3.73
2018-06-20T04:03:24.715Z,4.53
2018-06-20T04:05:53.554Z,4.33
2018-06-20T04:08:22.384Z,4.07
2018-06-20T04:10:51.967Z,4.30
2018-06-20T04:13:20.802Z,4.43
2018-06-20T04:15:49.643Z,4.77
2018-06-20T04:18:18.498Z,4.53
2018-06-20T04:20:47.319Z,4.60
2018-06-20T04:23:16.154Z,5.47
2018-06-20T04:25:45.016Z,5.03
2018-06-20T04:28:13.862Z,5.90
2018-06-20T04:30:42.697Z,5.20
2018-06-20T04:33:12.279Z,4.80
2018-06-20T04:35:41.719Z,5.72
2018-06-20T04:38:10.554Z,6.00
2018-06-20T04:40:39.402Z,5.70
2018-06-20T04:43:08.247Z,5.70
2018-06-20T04:45:37.085Z,5.67
2018-06-20T04:48:05.933Z,6.03
2018-06-20T04:50:34.779Z,5.30
2018-06-20T04:53:03.629Z,6.60
2018-06-20T04:55:32.536Z,6.40
2018-06-20T04:58:01.320Z,7.28
2018-06-20T05:00:30.904Z,6.17
2018-06-20T05:02:59.742Z,5.97
2018-06-20T05:05:28.582Z,6.53
2018-06-20T05:07:57.433Z,6.97
2018-06-20T05:10:26.274Z,6.03
2018-06-20T05:12:55.123Z,7.00
2018-06-20T05:15:23.954Z,6.83
2018-06-20T05:17:52.810Z,6.87
2018-06-20T05:20:21.643Z,7.45
2018-06-20T05:22:50.483Z,7.17
2018-06-20T05:25:19.318Z,6.73
2018-06-20T05:27:48.891Z,8.33
2018-06-20T05:30:17.740Z,7.00
2018-06-20T05:32:46.593Z,7.40
2018-06-20T05:35:15.419Z,6.37
2018-06-20T05:37:44.262Z,7.23
2018-06-20T05:40:13.099Z,8.10
2018-06-20T05:42:41.950Z,7.87
2018-06-20T05:45:10.785Z,7.47
2018-06-20T05:47:39.634Z,8.00
2018-06-20T05:50:08.475Z,8.07
2018-06-20T05:52:37.318Z,7.60
2018-06-20T05:55:06.159Z,7.70
2018-06-20T05:57:35.002Z,7.63
2018-06-20T06:00:04.691Z,8.27
2018-06-20T06:02:33.336Z,7.87
2018-06-20T06:05:02.185Z,7.53
2018-06-20T06:07:31.038Z,8.02
2018-06-20T06:09:59.876Z,7.78
2018-06-20T06:12:29.479Z,7.20
2018-06-20T06:14:58.328Z,8.00
2018-06-20T06:17:27.147Z,7.53
2018-06-20T06:19:56.011Z,7.45
2018-06-20T06:22:24.848Z,7.10
2018-06-20T06:24:54.432Z,6.20
2018-06-20T06:27:23.266Z,6.57
2018-06-20T06:29:52.130Z,5.47
2018-06-20T06:32:20.961Z,5.97
2018-06-20T06:34:49.831Z,4.53
2018-06-20T06:37:18.685Z,5.80
2018-06-20T06:39:47.531Z,5.60
2018-06-20T06:42:16.383Z,5.10
2018-06-20T06:44:45.264Z,6.97
2018-06-20T06:47:14.843Z,4.80
2018-06-20T06:49:43.701Z,4.20
2018-06-20T06:52:13.262Z,4.65
2018-06-20T06:54:42.966Z,3.67
2018-06-20T06:57:11.746Z,4.82
2018-06-20T06:59:40.585Z,3.30
2018-06-20T07:02:09.427Z,3.35
2018-06-20T07:04:38.267Z,3.42
2018-06-20T07:07:07.104Z,3.62
2018-06-20T07:09:35.941Z,3.58
2018-06-20T07:12:04.782Z,2.90
2018-06-20T07:14:33.625Z,3.20
2018-06-20T07:17:02.543Z,3.00
2018-06-20T07:19:31.394Z,3.05
2018-06-20T07:22:00.956Z,2.62
2018-06-20T07:24:29.829Z,2.40
2018-06-20T07:26:58.646Z,2.00
2018-06-20T07:29:27.515Z,2.75
2018-06-20T07:31:56.356Z,3.08
2018-06-20T07:34:25.224Z,3.03
2018-06-20T07:36:54.069Z,3.03
2018-06-20T07:39:22.905Z,3.30
2018-06-20T07:41:52.497Z,3.42
2018-06-20T07:44:21.335Z,3.20
2018-06-20T07:46:50.241Z,3.50
2018-06-20T07:49:19.779Z,3.35
2018-06-20T07:51:48.618Z,3.78
2018-06-20T07:54:17.463Z,3.72
2018-06-20T07:56:46.321Z,3.35
2018-06-20T07:59:15.161Z,3.80
2018-06-20T08:04:40.360Z,3.90
2018-06-20T08:07:09.275Z,3.45
2018-06-20T08:09:38.149Z,3.60
2018-06-20T08:12:10.014Z,3.72
2018-06-20T08:14:45.763Z,3.75
2018-06-20T08:17:14.406Z,3.40
2018-06-20T08:19:45.083Z,3.50
2018-06-20T08:22:13.920Z,3.20
2018-06-20T08:24:42.757Z,3.17
2018-06-20T08:27:12.336Z,3.00
2018-06-20T08:29:41.167Z,3.05
2018-06-20T08:32:10.017Z,2.80
2018-06-20T08:34:38.862Z,3.08
2018-06-20T08:37:07.695Z,2.87
2018-06-20T08:39:36.545Z,2.87
2018-06-20T08:42:05.384Z,2.65
2018-06-20T08:44:34.217Z,2.87
2018-06-20T08:47:03.059Z,2.80
2018-06-20T08:49:31.891Z,2.85
2018-06-20T08:52:00.724Z,2.80
2018-06-20T08:54:29.562Z,2.67
2018-06-20T08:56:58.396Z,3.00
2018-06-20T08:59:27.263Z,2.62
2018-06-20T09:01:56.098Z,2.80
2018-06-20T09:04:24.938Z,2.70
2018-06-20T09:06:55.622Z,2.60
2018-06-20T09:09:30.095Z,2.95
2018-06-20T09:11:59.035Z,2.67
2018-06-20T09:14:27.965Z,2.97
2018-06-20T09:17:01.632Z,2.80
2018-06-20T09:19:31.446Z,2.67
2018-06-20T09:22:00.312Z,2.83
2018-06-20T09:24:29.129Z,3.10
2018-06-20T09:26:58.711Z,2.75
2018-06-20T09:29:27.998Z,2.70
2018-06-20T09:31:56.861Z,2.58
2018-06-20T09:34:25.700Z,3.30
2018-06-20T09:36:54.589Z,2.85
2018-06-20T09:39:23.395Z,3.20
2018-06-20T09:41:52.254Z,2.83
2018-06-20T09:44:21.104Z,2.95
2018-06-20T09:46:49.951Z,2.90
2018-06-20T09:49:18.811Z,2.62
2018-06-20T09:51:47.662Z,2.80
2018-06-20T09:54:16.562Z,2.75
2018-06-20T09:56:45.341Z,2.60
2018-06-20T09:59:14.182Z,2.80
2018-06-20T10:01:48.613Z,2.70
2018-06-20T10:04:21.357Z,2.55
2018-06-20T10:06:55.838Z,2.40
2018-06-20T10:09:25.417Z,2.30
2018-06-20T10:11:54.260Z,2.50
2018-06-20T10:14:23.127Z,2.28
2018-06-20T10:16:52.703Z,2.30
2018-06-20T10:19:21.536Z,2.47
2018-06-20T10:21:50.382Z,2.47
2018-06-20T10:24:19.231Z,2.22
2018-06-20T10:26:48.067Z,2.20
2018-06-20T10:29:16.926Z,2.28
2018-06-20T10:31:45.767Z,2.47
2018-06-20T10:34:15.370Z,2.30
2018-06-20T10:36:44.207Z,2.30
2018-06-20T10:39:13.039Z,2.47
2018-06-20T10:41:42.016Z,2.50
2018-06-20T10:44:10.738Z,2.55
2018-06-20T10:46:45.228Z,2.22
2018-06-20T10:49:17.239Z,2.30
2018-06-20T10:51:44.093Z,2.30
2018-06-20T10:54:12.856Z,1.90
2018-06-20T10:56:41.698Z,1.80
2018-06-20T10:59:16.550Z,2.42
2018-06-20T11:01:46.141Z,2.10
2018-06-20T11:04:15.753Z,2.20
2018-06-20T11:06:46.603Z,2.05
2018-06-20T11:09:20.844Z,2.05
2018-06-20T11:11:51.422Z,2.00
2018-06-20T11:14:20.282Z,2.20
2018-06-20T11:16:49.118Z,2.20
2018-06-20T11:19:17.949Z,2.10
2018-06-20T11:21:46.786Z,2.17
2018-06-20T11:24:16.218Z,1.90
2018-06-20T11:26:45.076Z,2.15
2018-06-20T11:29:13.987Z,2.22
2018-06-20T11:31:42.767Z,2.00
2018-06-20T11:34:11.622Z,2.10
2018-06-20T11:36:40.458Z,2.17
2018-06-20T11:39:09.303Z,2.20
2018-06-20T11:41:38.136Z,2.00
2018-06-20T11:44:06.983Z,1.90
2018-06-20T11:46:35.817Z,1.98
2018-06-20T11:49:05.397Z,1.90
2018-06-20T11:51:34.248Z,1.87
2018-06-20T11:54:03.082Z,1.80
2018-06-20T11:56:31.932Z,2.03
2018-06-20T11:59:00.804Z,1.67
2018-06-20T12:01:32.532Z,2.00
2018-06-20T12:04:06.244Z,2.03
2018-06-20T12:06:35.834Z,1.90
2018-06-20T12:09:07.590Z,1.83
2018-06-20T12:11:41.919Z,1.87
2018-06-20T12:14:10.804Z,1.77
2018-06-20T12:16:39.658Z,1.73
2018-06-20T12:19:14.053Z,1.45
2018-06-20T12:21:48.393Z,1.65
2018-06-20T12:24:22.939Z,1.67
2018-06-20T12:26:57.483Z,2.00
2018-06-20T12:29:32.582Z,1.73
2018-06-20T12:32:06.877Z,1.70
2018-06-20T12:34:41.307Z,1.52
2018-06-20T12:37:15.754Z,1.77
2018-06-20T12:39:44.618Z,1.60
2018-06-20T12:42:15.412Z,1.77
2018-06-20T12:44:44.230Z,2.00
2018-06-20T12:47:13.070Z,1.60
2018-06-20T12:49:41.919Z,1.70
2018-06-20T12:52:10.757Z,1.90
2018-06-20T12:54:40.345Z,1.70
2018-06-20T12:57:09.188Z,1.60
2018-06-20T12:59:38.031Z,1.80
2018-06-20T13:02:06.882Z,1.70
2018-06-20T13:04:35.718Z,1.60
2018-06-20T13:07:04.569Z,1.40
2018-06-20T13:09:33.414Z,1.70
2018-06-20T13:12:02.270Z,1.70
2018-06-20T13:14:31.106Z,1.87
2018-06-20T13:16:59.955Z,1.90
2018-06-20T13:19:28.786Z,1.87
2018-06-20T13:21:57.644Z,1.77
2018-06-20T13:24:26.490Z,1.80
2018-06-20T13:26:55.469Z,1.60
2018-06-20T13:29:24.169Z,1.80
2018-06-20T13:31:53.795Z,1.70
2018-06-20T13:34:27.633Z,1.65
2018-06-20T13:36:59.290Z,1.77
2018-06-20T13:39:32.018Z,1.70
2018-06-20T13:42:00.809Z,1.55
2018-06-20T13:44:29.638Z,1.80
2018-06-20T13:46:59.240Z,1.62
2018-06-20T13:49:28.086Z,2.03
2018-06-20T13:51:56.921Z,1.80
2018-06-20T13:54:25.776Z,1.70
2018-06-20T13:56:54.613Z,1.92
2018-06-20T13:59:23.485Z,1.70
2018-06-20T14:01:52.312Z,1.87
2018-06-20T14:04:21.885Z,1.45
2018-06-20T14:06:51.310Z,1.62
2018-06-20T14:09:20.893Z,1.80
2018-06-20T14:11:49.754Z,1.67
2018-06-20T14:14:18.576Z,1.70
2018-06-20T14:16:47.465Z,1.65
2018-06-20T14:19:16.279Z,1.70
2018-06-20T14:21:45.126Z,1.80
2018-06-20T14:24:13.974Z,1.87
2018-06-20T14:26:43.552Z,1.80
2018-06-20T14:29:12.389Z,1.80
2018-06-20T14:31:41.340Z,1.87
2018-06-20T14:34:10.249Z,1.75
2018-06-20T14:36:41.775Z,1.80
2018-06-20T14:39:15.670Z,1.77
2018-06-20T14:41:44.318Z,1.80
2018-06-20T14:44:13.152Z,1.98
2018-06-20T14:46:42.002Z,1.90
2018-06-20T14:49:10.838Z,1.90
2018-06-20T14:51:39.683Z,1.67
2018-06-20T14:54:08.642Z,2.13
2018-06-20T14:56:38.237Z,1.70
2018-06-20T14:59:07.812Z,2.08
2018-06-20T15:01:36.673Z,2.00
2018-06-20T15:04:05.523Z,1.80
2018-06-20T15:06:34.361Z,1.65
2018-06-20T15:09:03.196Z,1.80
2018-06-20T15:11:32.770Z,1.90
2018-06-20T15:14:01.647Z,2.00
2018-06-20T15:16:30.487Z,2.10
2018-06-20T15:19:00.061Z,1.92
2018-06-20T15:21:28.901Z,1.75
2018-06-20T15:23:57.765Z,1.87
2018-06-20T15:26:27.351Z,1.90
2018-06-20T15:28:57.132Z,1.80
2018-06-20T15:31:27.766Z,1.83
2018-06-20T15:34:02.133Z,2.00
2018-06-20T15:36:34.495Z,1.65
2018-06-20T15:39:03.335Z,2.00
2018-06-20T15:41:32.175Z,1.87
2018-06-20T15:44:01.024Z,1.75
2018-06-20T15:46:29.864Z,1.98
2018-06-20T15:48:58.717Z,1.70
2018-06-20T15:51:27.561Z,1.83
2018-06-20T15:53:56.420Z,1.80
2018-06-20T15:56:25.998Z,1.52
2018-06-20T15:58:54.848Z,1.77
2018-06-20T16:01:23.694Z,1.80
2018-06-20T16:03:52.530Z,1.45
2018-06-20T16:06:21.374Z,1.73
2018-06-20T16:08:50.210Z,1.90
2018-06-20T16:11:19.050Z,1.90
2018-06-20T16:13:47.906Z,1.65
2018-06-20T16:16:16.749Z,1.60
2018-06-20T16:18:45.600Z,1.75
2018-06-20T16:21:14.464Z,1.83
2018-06-20T16:23:43.423Z,1.85
2018-06-20T16:26:12.303Z,1.73
2018-06-20T16:28:42.062Z,1.77
2018-06-20T16:31:10.895Z,1.70
2018-06-20T16:33:39.727Z,1.73
2018-06-20T16:36:09.303Z,1.62
2018-06-20T16:38:38.167Z,1.60
2018-06-20T16:41:07.007Z,1.80
2018-06-20T16:43:35.845Z,1.92
2018-06-20T16:46:04.691Z,1.70
2018-06-20T16:48:33.542Z,1.62
2018-06-20T16:51:02.391Z,1.73
2018-06-20T16:53:31.974Z,1.85
2018-06-20T16:56:01.550Z,1.77
2018-06-20T16:58:30.987Z,1.65
2018-06-20T17:01:00.582Z,1.80
2018-06-20T17:03:29.433Z,1.90
2018-06-20T17:05:58.264Z,2.10
2018-06-20T17:08:27.106Z,1.90
2018-06-20T17:10:55.943Z,1.87
2018-06-20T17:13:25.543Z,1.83
2018-06-20T17:15:55.163Z,6.70
2018-06-20T17:18:27.801Z,2.08
2018-06-20T17:21:00.623Z,2.58
2018-06-20T17:23:31.229Z,2.05
2018-06-20T17:26:00.071Z,5.32
2018-06-20T17:28:28.927Z,1.80
2018-06-20T17:30:57.784Z,1.70
2018-06-20T17:33:26.626Z,1.73
2018-06-20T17:35:55.471Z,2.10
2018-06-20T17:38:24.305Z,1.65
2018-06-20T17:40:53.146Z,2.00
2018-06-20T17:43:21.979Z,1.90
2018-06-20T17:45:50.825Z,1.80
2018-06-20T17:48:19.665Z,2.00
2018-06-20T17:50:48.529Z,2.10
2018-06-20T17:53:18.123Z,1.70
2018-06-20T17:55:46.988Z,1.83
2018-06-20T17:58:15.803Z,1.80
2018-06-20T18:00:44.650Z,1.77
2018-06-20T18:03:13.486Z,1.80
2018-06-20T18:05:46.127Z,1.95
2018-06-20T18:08:18.871Z,2.00
2018-06-20T18:10:49.278Z,2.25
2018-06-20T18:13:18.887Z,2.10
2018-06-20T18:15:53.377Z,2.28
2018-06-20T18:18:22.216Z,2.30
2018-06-20T18:20:51.062Z,2.10
2018-06-20T18:23:19.895Z,2.10
2018-06-20T18:25:48.753Z,2.30
2018-06-20T18:28:17.602Z,2.50
2018-06-20T18:30:46.445Z,2.47
2018-06-20T18:33:15.282Z,2.50
2018-06-20T18:35:44.170Z,2.40
2018-06-20T18:38:12.974Z,2.55
2018-06-20T18:40:42.561Z,2.40
2018-06-20T18:43:11.416Z,2.62
2018-06-20T18:45:40.270Z,2.58
2018-06-20T18:48:09.115Z,2.30
2018-06-20T18:50:37.951Z,2.60
2018-06-20T18:53:06.800Z,2.87
2018-06-20T18:55:35.644Z,2.90
2018-06-20T18:58:05.231Z,2.40
2018-06-20T19:00:40.141Z,2.75
2018-06-20T19:03:08.931Z,2.63
2018-06-20T19:05:43.179Z,2.40
2018-06-20T19:08:12.778Z,2.53
2018-06-20T19:10:41.623Z,2.80
2018-06-20T19:13:10.487Z,2.57
2018-06-20T19:15:40.107Z,2.47
2018-06-20T19:18:08.973Z,2.60
2018-06-20T19:20:38.586Z,2.30
2018-06-20T19:23:07.454Z,2.40
2018-06-20T19:25:36.275Z,2.60
2018-06-20T19:28:05.866Z,2.75
2018-06-20T19:30:34.712Z,2.55
2018-06-20T19:33:03.823Z,2.50
2018-06-20T19:35:32.661Z,2.53
2018-06-20T19:38:02.280Z,2.40
2018-06-20T19:40:31.132Z,2.42
2018-06-20T19:42:59.981Z,2.70
2018-06-20T19:45:28.829Z,2.45
2018-06-20T19:47:58.417Z,2.67
2018-06-20T19:50:27.269Z,2.58
2018-06-20T19:52:56.111Z,2.40
2018-06-20T19:55:25.698Z,2.45
2018-06-20T19:57:54.553Z,2.58
2018-06-20T20:00:23.423Z,2.15
2018-06-20T20:02:52.255Z,2.55
2018-06-20T20:05:21.101Z,2.30
2018-06-20T20:07:49.944Z,2.70
2018-06-20T20:10:18.804Z,2.47
2018-06-20T20:12:47.651Z,2.30
2018-06-20T20:15:17.241Z,2.65
2018-06-20T20:17:46.131Z,2.40
2018-06-20T20:20:14.947Z,2.67
2018-06-20T20:22:43.824Z,2.30
2018-06-20T20:25:12.631Z,2.65
2018-06-20T20:27:42.218Z,2.20
2018-06-20T20:30:11.052Z,2.75
2018-06-20T20:32:40.002Z,2.60
2018-06-20T20:35:08.730Z,2.70
2018-06-20T20:37:38.322Z,2.42
2018-06-20T20:40:07.943Z,2.30
2018-06-20T20:42:37.535Z,2.50
2018-06-20T20:45:07.125Z,2.50
2018-06-20T20:47:35.969Z,2.50
2018-06-20T20:50:04.836Z,2.40
2018-06-20T20:52:33.671Z,2.53
2018-06-20T20:56:55.967Z,2.80
2018-06-20T20:59:25.396Z,3.10
2018-06-20T21:01:54.982Z,3.20
2018-06-20T21:04:23.830Z,2.75
2018-06-20T21:06:52.724Z,3.20
2018-06-20T21:09:21.536Z,3.53
2018-06-20T21:11:50.375Z,2.90
2018-06-20T21:14:19.219Z,3.10
2018-06-20T21:16:48.057Z,3.10
2018-06-20T21:19:16.961Z,3.00
2018-06-20T21:21:46.500Z,3.25
2018-06-20T21:24:15.348Z,3.40
2018-06-20T21:26:44.933Z,3.45
2018-06-20T21:29:13.784Z,3.53
2018-06-20T21:31:42.627Z,3.55
2018-06-20T21:34:11.463Z,3.17
2018-06-20T21:36:40.294Z,3.50
2018-06-20T21:39:09.133Z,2.80
2018-06-20T21:41:37.974Z,2.92
2018-06-20T21:44:07.563Z,3.60
2018-06-20T21:46:36.404Z,3.00
2018-06-20T21:49:05.249Z,2.90
2018-06-20T21:51:34.080Z,3.60
2018-06-20T21:54:02.943Z,3.50
2018-06-20T21:56:31.790Z,2.67
2018-06-20T21:59:00.631Z,2.72
2018-06-20T22:01:29.473Z,2.92
2018-06-20T22:03:58.315Z,3.12
2018-06-20T22:06:27.921Z,3.17
2018-06-20T22:08:57.524Z,3.20
2018-06-20T22:11:26.361Z,2.80
2018-06-20T22:13:55.207Z,3.08
2018-06-20T22:16:24.054Z,2.90
2018-06-20T22:18:52.914Z,2.87
2018-06-20T22:21:21.763Z,3.28
2018-06-20T22:23:50.599Z,3.03
2018-06-20T22:26:19.446Z,3.17
2018-06-20T22:28:48.281Z,3.30
2018-06-20T22:31:17.133Z,2.78
2018-06-20T22:33:45.983Z,3.30
2018-06-20T22:36:14.825Z,3.22
2018-06-20T22:38:43.670Z,3.12
2018-06-20T22:41:12.515Z,3.30
2018-06-20T22:43:41.348Z,3.00
2018-06-20T22:46:10.186Z,3.03
2018-06-20T22:48:39.022Z,3.00
2018-06-20T22:51:07.869Z,3.75
2018-06-20T22:53:37.454Z,3.17
2018-06-20T22:56:06.292Z,3.47
2018-06-20T22:58:35.129Z,3.10
2018-06-20T23:01:03.971Z,3.67
2018-06-20T23:03:32.807Z,3.87
2018-06-20T23:06:01.644Z,3.75
2018-06-20T23:08:30.479Z,3.97
2018-06-20T23:10:59.326Z,3.90
2018-06-20T23:13:28.167Z,3.90
2018-06-20T23:15:57.003Z,3.60
2018-06-20T23:18:25.851Z,4.25
2018-06-20T23:20:54.702Z,4.43
2018-06-20T23:23:24.287Z,3.72
2018-06-20T23:25:53.137Z,4.00
2018-06-20T23:28:21.979Z,4.50
2018-06-20T23:30:50.842Z,3.87
2018-06-20T23:33:19.675Z,4.55
2018-06-20T23:35:48.525Z,4.10
2018-06-20T23:38:17.368Z,4.22
2018-06-20T23:40:46.942Z,3.78
2018-06-20T23:43:15.787Z,4.65
2018-06-20T23:45:44.638Z,3.90
2018-06-20T23:48:13.487Z,3.80
2018-06-20T23:50:42.339Z,4.37
2018-06-20T23:53:11.185Z,3.90
2018-06-20T23:55:40.039Z,3.53
2018-06-20T23:58:08.913Z,4.28
